sensor_id;sensor_type;location;lat;lon;timestamp;P1;durP1;ratioP1;P2;durP2;ratioP2
46086;SDS011;31824;49.648;8.640;2022-11-20T00:02:10;7.20;;;3.10;;
46086;SDS011;31824;49.648;8.640;2022-11-20T00:05:13;5.78;;;2.85;;
46086;SDS011;31824;49.648;8.640;2022-11-20T00:08:15;4.82;;;2.30;;
46086;SDS011;31824;49.648;8.640;2022-11-20T00:11:17;5.07;;;2.47;;
46086;SDS011;31824;49.648;8.640;2022-11-20T00:14:20;5.72;;;2.65;;
46086;SDS011;31824;49.648;8.640;2022-11-20T00:17:22;4.47;;;2.55;;
46086;SDS011;31824;49.648;8.640;2022-11-20T00:20:25;5.95;;;3.22;;
46086;SDS011;31824;49.648;8.640;2022-11-20T00:23:27;5.55;;;3.60;;
46086;SDS011;31824;49.648;8.640;2022-11-20T00:26:29;6.47;;;2.45;;
46086;SDS011;31824;49.648;8.640;2022-11-20T00:29:31;4.70;;;2.70;;
46086;SDS011;31824;49.648;8.640;2022-11-20T00:32:33;6.22;;;2.58;;
46086;SDS011;31824;49.648;8.640;2022-11-20T00:35:36;8.30;;;2.90;;
46086;SDS011;31824;49.648;8.640;2022-11-20T00:38:38;5.43;;;2.63;;
46086;SDS011;31824;49.648;8.640;2022-11-20T00:41:39;5.75;;;2.63;;
46086;SDS011;31824;49.648;8.640;2022-11-20T00:44:41;6.03;;;2.65;;
46086;SDS011;31824;49.648;8.640;2022-11-20T00:47:43;5.93;;;2.72;;
46086;SDS011;31824;49.648;8.640;2022-11-20T00:50:46;7.32;;;3.50;;
46086;SDS011;31824;49.648;8.640;2022-11-20T00:53:47;7.53;;;3.10;;
46086;SDS011;31824;49.648;8.640;2022-11-20T00:56:49;5.82;;;2.88;;
46086;SDS011;31824;49.648;8.640;2022-11-20T00:59:51;5.60;;;2.80;;
46086;SDS011;31824;49.648;8.640;2022-11-20T01:02:55;9.48;;;3.53;;
46086;SDS011;31824;49.648;8.640;2022-11-20T01:06:00;5.18;;;2.78;;
46086;SDS011;31824;49.648;8.640;2022-11-20T01:09:03;5.20;;;2.58;;
46086;SDS011;31824;49.648;8.640;2022-11-20T01:12:06;6.45;;;3.17;;
46086;SDS011;31824;49.648;8.640;2022-11-20T01:15:08;4.80;;;2.35;;
46086;SDS011;31824;49.648;8.640;2022-11-20T01:18:10;5.22;;;2.60;;
46086;SDS011;31824;49.648;8.640;2022-11-20T01:21:13;6.10;;;2.70;;
46086;SDS011;31824;49.648;8.640;2022-11-20T01:27:20;4.20;;;2.42;;
46086;SDS011;31824;49.648;8.640;2022-11-20T01:30:22;6.07;;;2.60;;
46086;SDS011;31824;49.648;8.640;2022-11-20T01:33:23;3.90;;;2.20;;
46086;SDS011;31824;49.648;8.640;2022-11-20T01:36:27;6.47;;;2.70;;
46086;SDS011;31824;49.648;8.640;2022-11-20T01:42:32;3.55;;;2.17;;
46086;SDS011;31824;49.648;8.640;2022-11-20T01:45:56;3.30;;;1.23;;
46086;SDS011;31824;49.648;8.640;2022-11-20T01:49:01;3.05;;;1.30;;
46086;SDS011;31824;49.648;8.640;2022-11-20T01:52:07;3.35;;;1.42;;
46086;SDS011;31824;49.648;8.640;2022-11-20T01:55:17;5.28;;;2.47;;
46086;SDS011;31824;49.648;8.640;2022-11-20T01:58:25;4.70;;;1.77;;
46086;SDS011;31824;49.648;8.640;2022-11-20T02:01:29;4.65;;;2.35;;
46086;SDS011;31824;49.648;8.640;2022-11-20T02:04:31;3.92;;;1.88;;
46086;SDS011;31824;49.648;8.640;2022-11-20T02:07:34;4.63;;;2.05;;
46086;SDS011;31824;49.648;8.640;2022-11-20T02:10:36;3.58;;;1.77;;
46086;SDS011;31824;49.648;8.640;2022-11-20T02:13:38;4.20;;;2.28;;
46086;SDS011;31824;49.648;8.640;2022-11-20T02:16:47;4.10;;;1.85;;
46086;SDS011;31824;49.648;8.640;2022-11-20T02:19:50;5.45;;;2.20;;
46086;SDS011;31824;49.648;8.640;2022-11-20T02:22:55;5.38;;;2.25;;
46086;SDS011;31824;49.648;8.640;2022-11-20T02:26:03;3.95;;;2.00;;
46086;SDS011;31824;49.648;8.640;2022-11-20T02:29:08;5.18;;;2.10;;
46086;SDS011;31824;49.648;8.640;2022-11-20T02:32:17;6.65;;;2.67;;
46086;SDS011;31824;49.648;8.640;2022-11-20T02:38:42;5.35;;;2.78;;
46086;SDS011;31824;49.648;8.640;2022-11-20T02:41:46;4.38;;;2.60;;
46086;SDS011;31824;49.648;8.640;2022-11-20T02:44:47;5.22;;;2.15;;
46086;SDS011;31824;49.648;8.640;2022-11-20T02:47:49;6.15;;;2.22;;
46086;SDS011;31824;49.648;8.640;2022-11-20T02:50:51;4.10;;;1.70;;
46086;SDS011;31824;49.648;8.640;2022-11-20T02:53:52;3.45;;;1.60;;
46086;SDS011;31824;49.648;8.640;2022-11-20T02:56:55;4.00;;;1.88;;
46086;SDS011;31824;49.648;8.640;2022-11-20T02:59:57;5.38;;;2.17;;
46086;SDS011;31824;49.648;8.640;2022-11-20T03:02:59;6.25;;;2.35;;
46086;SDS011;31824;49.648;8.640;2022-11-20T03:06:00;4.00;;;2.00;;
46086;SDS011;31824;49.648;8.640;2022-11-20T03:09:02;4.40;;;2.10;;
46086;SDS011;31824;49.648;8.640;2022-11-20T03:12:05;6.10;;;2.35;;
46086;SDS011;31824;49.648;8.640;2022-11-20T03:15:08;5.47;;;2.42;;
46086;SDS011;31824;49.648;8.640;2022-11-20T03:18:10;5.30;;;2.35;;
46086;SDS011;31824;49.648;8.640;2022-11-20T03:21:13;4.10;;;2.05;;
46086;SDS011;31824;49.648;8.640;2022-11-20T03:24:16;4.47;;;2.22;;
46086;SDS011;31824;49.648;8.640;2022-11-20T03:27:19;5.57;;;2.33;;
46086;SDS011;31824;49.648;8.640;2022-11-20T03:30:21;4.40;;;2.35;;
46086;SDS011;31824;49.648;8.640;2022-11-20T03:33:30;5.43;;;2.30;;
46086;SDS011;31824;49.648;8.640;2022-11-20T03:36:32;6.15;;;2.78;;
46086;SDS011;31824;49.648;8.640;2022-11-20T03:39:34;7.75;;;3.25;;
46086;SDS011;31824;49.648;8.640;2022-11-20T03:42:37;4.90;;;2.40;;
46086;SDS011;31824;49.648;8.640;2022-11-20T03:45:48;5.78;;;2.72;;
46086;SDS011;31824;49.648;8.640;2022-11-20T03:48:50;7.32;;;3.08;;
46086;SDS011;31824;49.648;8.640;2022-11-20T03:51:52;5.30;;;2.80;;
46086;SDS011;31824;49.648;8.640;2022-11-20T03:54:54;8.40;;;3.30;;
46086;SDS011;31824;49.648;8.640;2022-11-20T03:57:57;6.57;;;3.03;;
46086;SDS011;31824;49.648;8.640;2022-11-20T04:01:03;5.88;;;2.80;;
46086;SDS011;31824;49.648;8.640;2022-11-20T04:04:06;6.13;;;3.17;;
46086;SDS011;31824;49.648;8.640;2022-11-20T04:07:08;7.00;;;2.92;;
46086;SDS011;31824;49.648;8.640;2022-11-20T04:10:10;5.25;;;3.00;;
46086;SDS011;31824;49.648;8.640;2022-11-20T04:13:16;5.82;;;2.90;;
46086;SDS011;31824;49.648;8.640;2022-11-20T04:16:18;6.47;;;3.00;;
46086;SDS011;31824;49.648;8.640;2022-11-20T04:19:20;5.40;;;2.78;;
46086;SDS011;31824;49.648;8.640;2022-11-20T04:22:22;6.68;;;2.40;;
46086;SDS011;31824;49.648;8.640;2022-11-20T04:25:24;6.35;;;3.15;;
46086;SDS011;31824;49.648;8.640;2022-11-20T04:28:26;3.53;;;2.05;;
46086;SDS011;31824;49.648;8.640;2022-11-20T04:31:30;12.38;;;3.35;;
46086;SDS011;31824;49.648;8.640;2022-11-20T04:34:32;6.93;;;3.90;;
46086;SDS011;31824;49.648;8.640;2022-11-20T04:37:34;8.05;;;3.83;;
46086;SDS011;31824;49.648;8.640;2022-11-20T04:40:36;7.15;;;3.05;;
46086;SDS011;31824;49.648;8.640;2022-11-20T04:43:39;6.55;;;3.33;;
46086;SDS011;31824;49.648;8.640;2022-11-20T04:46:41;6.07;;;2.25;;
46086;SDS011;31824;49.648;8.640;2022-11-20T04:49:43;6.07;;;2.70;;
46086;SDS011;31824;49.648;8.640;2022-11-20T04:52:45;8.13;;;3.17;;
46086;SDS011;31824;49.648;8.640;2022-11-20T04:55:46;6.60;;;2.65;;
46086;SDS011;31824;49.648;8.640;2022-11-20T04:58:50;6.78;;;3.10;;
46086;SDS011;31824;49.648;8.640;2022-11-20T05:01:52;5.30;;;2.38;;
46086;SDS011;31824;49.648;8.640;2022-11-20T05:04:53;5.47;;;2.70;;
46086;SDS011;31824;49.648;8.640;2022-11-20T05:07:55;6.70;;;3.28;;
46086;SDS011;31824;49.648;8.640;2022-11-20T05:10:59;6.55;;;3.20;;
46086;SDS011;31824;49.648;8.640;2022-11-20T05:14:03;5.15;;;2.60;;
46086;SDS011;31824;49.648;8.640;2022-11-20T05:17:04;7.55;;;3.40;;
46086;SDS011;31824;49.648;8.640;2022-11-20T05:20:07;9.05;;;3.28;;
46086;SDS011;31824;49.648;8.640;2022-11-20T05:23:09;5.60;;;2.95;;
46086;SDS011;31824;49.648;8.640;2022-11-20T05:26:15;5.72;;;3.05;;
46086;SDS011;31824;49.648;8.640;2022-11-20T05:29:19;5.00;;;2.40;;
46086;SDS011;31824;49.648;8.640;2022-11-20T05:32:21;6.22;;;2.40;;
46086;SDS011;31824;49.648;8.640;2022-11-20T05:35:26;4.97;;;2.08;;
46086;SDS011;31824;49.648;8.640;2022-11-20T05:38:28;4.80;;;2.13;;
46086;SDS011;31824;49.648;8.640;2022-11-20T05:41:29;9.25;;;3.63;;
46086;SDS011;31824;49.648;8.640;2022-11-20T05:44:32;5.55;;;2.53;;
46086;SDS011;31824;49.648;8.640;2022-11-20T05:47:34;5.63;;;2.97;;
46086;SDS011;31824;49.648;8.640;2022-11-20T05:50:36;7.20;;;3.22;;
46086;SDS011;31824;49.648;8.640;2022-11-20T05:53:38;8.45;;;4.07;;
46086;SDS011;31824;49.648;8.640;2022-11-20T05:56:47;8.48;;;4.72;;
46086;SDS011;31824;49.648;8.640;2022-11-20T05:59:50;5.95;;;2.58;;
46086;SDS011;31824;49.648;8.640;2022-11-20T06:02:51;6.03;;;3.13;;
46086;SDS011;31824;49.648;8.640;2022-11-20T06:05:53;7.72;;;3.38;;
46086;SDS011;31824;49.648;8.640;2022-11-20T06:08:55;5.45;;;2.60;;
46086;SDS011;31824;49.648;8.640;2022-11-20T06:11:57;8.32;;;2.42;;
46086;SDS011;31824;49.648;8.640;2022-11-20T06:15:00;6.90;;;3.33;;
46086;SDS011;31824;49.648;8.640;2022-11-20T06:18:02;8.90;;;3.65;;
46086;SDS011;31824;49.648;8.640;2022-11-20T06:21:04;5.55;;;3.35;;
46086;SDS011;31824;49.648;8.640;2022-11-20T06:24:08;7.75;;;3.53;;
46086;SDS011;31824;49.648;8.640;2022-11-20T06:27:10;7.75;;;2.83;;
46086;SDS011;31824;49.648;8.640;2022-11-20T06:30:14;7.00;;;3.67;;
46086;SDS011;31824;49.648;8.640;2022-11-20T06:33:16;7.25;;;2.72;;
46086;SDS011;31824;49.648;8.640;2022-11-20T06:36:18;5.47;;;2.83;;
46086;SDS011;31824;49.648;8.640;2022-11-20T06:39:21;5.15;;;2.80;;
46086;SDS011;31824;49.648;8.640;2022-11-20T06:42:23;7.28;;;3.55;;
46086;SDS011;31824;49.648;8.640;2022-11-20T06:45:26;6.03;;;3.63;;
46086;SDS011;31824;49.648;8.640;2022-11-20T06:48:28;9.02;;;3.20;;
46086;SDS011;31824;49.648;8.640;2022-11-20T06:51:30;7.22;;;3.80;;
46086;SDS011;31824;49.648;8.640;2022-11-20T06:54:32;7.60;;;3.45;;
46086;SDS011;31824;49.648;8.640;2022-11-20T06:57:34;7.97;;;4.35;;
46086;SDS011;31824;49.648;8.640;2022-11-20T07:00:37;6.50;;;3.45;;
46086;SDS011;31824;49.648;8.640;2022-11-20T07:03:39;9.52;;;4.03;;
46086;SDS011;31824;49.648;8.640;2022-11-20T07:06:41;10.00;;;4.22;;
46086;SDS011;31824;49.648;8.640;2022-11-20T07:09:43;8.13;;;3.88;;
46086;SDS011;31824;49.648;8.640;2022-11-20T07:12:48;9.93;;;3.67;;
46086;SDS011;31824;49.648;8.640;2022-11-20T07:15:52;8.70;;;4.20;;
46086;SDS011;31824;49.648;8.640;2022-11-20T07:18:54;10.30;;;3.65;;
46086;SDS011;31824;49.648;8.640;2022-11-20T07:21:55;7.68;;;3.40;;
46086;SDS011;31824;49.648;8.640;2022-11-20T07:24:57;8.32;;;3.42;;
46086;SDS011;31824;49.648;8.640;2022-11-20T07:27:59;12.45;;;4.65;;
46086;SDS011;31824;49.648;8.640;2022-11-20T07:31:02;11.77;;;5.22;;
46086;SDS011;31824;49.648;8.640;2022-11-20T07:34:06;6.45;;;3.55;;
46086;SDS011;31824;49.648;8.640;2022-11-20T07:37:07;11.40;;;4.78;;
46086;SDS011;31824;49.648;8.640;2022-11-20T07:40:11;10.20;;;4.95;;
46086;SDS011;31824;49.648;8.640;2022-11-20T07:43:13;6.97;;;3.00;;
46086;SDS011;31824;49.648;8.640;2022-11-20T07:46:17;9.60;;;4.75;;
46086;SDS011;31824;49.648;8.640;2022-11-20T07:49:19;8.77;;;3.75;;
46086;SDS011;31824;49.648;8.640;2022-11-20T07:52:21;7.88;;;4.25;;
46086;SDS011;31824;49.648;8.640;2022-11-20T07:55:22;9.02;;;3.65;;
46086;SDS011;31824;49.648;8.640;2022-11-20T07:58:24;9.57;;;5.28;;
46086;SDS011;31824;49.648;8.640;2022-11-20T08:01:27;9.27;;;4.65;;
46086;SDS011;31824;49.648;8.640;2022-11-20T08:04:29;7.80;;;4.25;;
46086;SDS011;31824;49.648;8.640;2022-11-20T08:07:34;8.93;;;3.50;;
46086;SDS011;31824;49.648;8.640;2022-11-20T08:10:36;8.00;;;3.15;;
46086;SDS011;31824;49.648;8.640;2022-11-20T08:13:38;6.22;;;3.20;;
46086;SDS011;31824;49.648;8.640;2022-11-20T08:17:00;8.90;;;4.57;;
46086;SDS011;31824;49.648;8.640;2022-11-20T08:20:02;12.82;;;4.68;;
46086;SDS011;31824;49.648;8.640;2022-11-20T08:23:04;8.98;;;4.78;;
46086;SDS011;31824;49.648;8.640;2022-11-20T08:26:07;11.40;;;4.75;;
46086;SDS011;31824;49.648;8.640;2022-11-20T08:29:08;10.90;;;5.28;;
46086;SDS011;31824;49.648;8.640;2022-11-20T08:32:12;12.18;;;5.07;;
46086;SDS011;31824;49.648;8.640;2022-11-20T08:35:13;9.38;;;4.47;;
46086;SDS011;31824;49.648;8.640;2022-11-20T08:38:15;12.77;;;5.60;;
46086;SDS011;31824;49.648;8.640;2022-11-20T08:41:17;12.82;;;5.22;;
46086;SDS011;31824;49.648;8.640;2022-11-20T08:44:25;15.13;;;6.40;;
46086;SDS011;31824;49.648;8.640;2022-11-20T08:47:28;11.60;;;5.43;;
46086;SDS011;31824;49.648;8.640;2022-11-20T08:50:30;9.23;;;4.75;;
46086;SDS011;31824;49.648;8.640;2022-11-20T08:53:35;11.00;;;5.03;;
46086;SDS011;31824;49.648;8.640;2022-11-20T08:56:36;10.10;;;3.85;;
46086;SDS011;31824;49.648;8.640;2022-11-20T08:59:38;11.55;;;5.07;;
46086;SDS011;31824;49.648;8.640;2022-11-20T09:03:01;13.10;;;5.25;;
46086;SDS011;31824;49.648;8.640;2022-11-20T09:06:04;9.50;;;4.47;;
46086;SDS011;31824;49.648;8.640;2022-11-20T09:09:07;9.05;;;4.40;;
46086;SDS011;31824;49.648;8.640;2022-11-20T09:12:08;10.43;;;4.97;;
46086;SDS011;31824;49.648;8.640;2022-11-20T09:15:10;8.65;;;4.10;;
46086;SDS011;31824;49.648;8.640;2022-11-20T09:18:14;11.07;;;4.80;;
46086;SDS011;31824;49.648;8.640;2022-11-20T09:21:16;12.00;;;5.68;;
46086;SDS011;31824;49.648;8.640;2022-11-20T09:24:18;10.30;;;4.40;;
46086;SDS011;31824;49.648;8.640;2022-11-20T09:27:20;12.00;;;5.00;;
46086;SDS011;31824;49.648;8.640;2022-11-20T09:30:22;9.52;;;4.40;;
46086;SDS011;31824;49.648;8.640;2022-11-20T09:33:25;7.38;;;3.75;;
46086;SDS011;31824;49.648;8.640;2022-11-20T09:36:27;11.27;;;4.60;;
46086;SDS011;31824;49.648;8.640;2022-11-20T09:39:29;10.95;;;5.40;;
46086;SDS011;31824;49.648;8.640;2022-11-20T09:42:32;10.98;;;5.22;;
46086;SDS011;31824;49.648;8.640;2022-11-20T09:45:49;9.90;;;4.63;;
46086;SDS011;31824;49.648;8.640;2022-11-20T09:49:04;13.80;;;5.57;;
46086;SDS011;31824;49.648;8.640;2022-11-20T09:52:20;11.73;;;5.90;;
46086;SDS011;31824;49.648;8.640;2022-11-20T09:55:28;13.07;;;5.38;;
46086;SDS011;31824;49.648;8.640;2022-11-20T09:58:33;9.63;;;3.65;;
46086;SDS011;31824;49.648;8.640;2022-11-20T10:01:41;11.77;;;4.60;;
46086;SDS011;31824;49.648;8.640;2022-11-20T10:04:47;10.98;;;5.18;;
46086;SDS011;31824;49.648;8.640;2022-11-20T10:07:55;14.13;;;5.88;;
46086;SDS011;31824;49.648;8.640;2022-11-20T10:11:05;13.50;;;5.68;;
46086;SDS011;31824;49.648;8.640;2022-11-20T10:14:19;13.18;;;6.03;;
46086;SDS011;31824;49.648;8.640;2022-11-20T10:17:38;13.32;;;6.22;;
46086;SDS011;31824;49.648;8.640;2022-11-20T10:21:00;12.20;;;6.88;;
46086;SDS011;31824;49.648;8.640;2022-11-20T10:24:23;13.90;;;5.95;;
46086;SDS011;31824;49.648;8.640;2022-11-20T10:28:00;12.48;;;5.70;;
46086;SDS011;31824;49.648;8.640;2022-11-20T10:31:14;14.23;;;5.25;;
46086;SDS011;31824;49.648;8.640;2022-11-20T10:34:26;12.55;;;5.45;;
46086;SDS011;31824;49.648;8.640;2022-11-20T10:37:37;11.02;;;5.20;;
46086;SDS011;31824;49.648;8.640;2022-11-20T10:40:42;11.18;;;5.72;;
46086;SDS011;31824;49.648;8.640;2022-11-20T10:43:47;13.35;;;5.68;;
46086;SDS011;31824;49.648;8.640;2022-11-20T10:46:53;13.35;;;6.20;;
46086;SDS011;31824;49.648;8.640;2022-11-20T10:49:57;16.27;;;7.93;;
46086;SDS011;31824;49.648;8.640;2022-11-20T10:53:08;11.65;;;4.90;;
46086;SDS011;31824;49.648;8.640;2022-11-20T10:56:23;9.15;;;4.93;;
46086;SDS011;31824;49.648;8.640;2022-11-20T10:59:35;8.68;;;4.25;;
46086;SDS011;31824;49.648;8.640;2022-11-20T11:02:45;9.63;;;4.38;;
46086;SDS011;31824;49.648;8.640;2022-11-20T11:05:50;17.15;;;7.80;;
46086;SDS011;31824;49.648;8.640;2022-11-20T11:08:58;18.00;;;7.95;;
46086;SDS011;31824;49.648;8.640;2022-11-20T11:12:06;13.15;;;4.85;;
46086;SDS011;31824;49.648;8.640;2022-11-20T11:15:11;11.57;;;4.40;;
46086;SDS011;31824;49.648;8.640;2022-11-20T11:18:23;9.45;;;4.07;;
46086;SDS011;31824;49.648;8.640;2022-11-20T11:21:26;11.60;;;4.53;;
46086;SDS011;31824;49.648;8.640;2022-11-20T11:24:29;15.20;;;5.38;;
46086;SDS011;31824;49.648;8.640;2022-11-20T11:27:47;10.95;;;4.53;;
46086;SDS011;31824;49.648;8.640;2022-11-20T11:30:49;7.95;;;3.78;;
46086;SDS011;31824;49.648;8.640;2022-11-20T11:33:51;7.00;;;3.42;;
46086;SDS011;31824;49.648;8.640;2022-11-20T11:36:54;14.20;;;5.53;;
46086;SDS011;31824;49.648;8.640;2022-11-20T11:39:59;9.30;;;4.55;;
46086;SDS011;31824;49.648;8.640;2022-11-20T11:43:22;8.75;;;4.72;;
46086;SDS011;31824;49.648;8.640;2022-11-20T11:46:49;12.90;;;5.28;;
46086;SDS011;31824;49.648;8.640;2022-11-20T11:50:14;11.43;;;3.92;;
46086;SDS011;31824;49.648;8.640;2022-11-20T11:53:17;9.88;;;4.15;;
46086;SDS011;31824;49.648;8.640;2022-11-20T11:56:23;11.07;;;4.47;;
46086;SDS011;31824;49.648;8.640;2022-11-20T11:59:26;10.73;;;4.15;;
46086;SDS011;31824;49.648;8.640;2022-11-20T12:02:34;8.23;;;3.88;;
46086;SDS011;31824;49.648;8.640;2022-11-20T12:05:41;11.32;;;5.18;;
46086;SDS011;31824;49.648;8.640;2022-11-20T12:08:46;9.88;;;5.07;;
46086;SDS011;31824;49.648;8.640;2022-11-20T12:11:54;13.73;;;5.75;;
46086;SDS011;31824;49.648;8.640;2022-11-20T12:15:00;14.95;;;5.55;;
46086;SDS011;31824;49.648;8.640;2022-11-20T12:18:18;12.32;;;6.45;;
46086;SDS011;31824;49.648;8.640;2022-11-20T12:21:25;11.27;;;5.10;;
46086;SDS011;31824;49.648;8.640;2022-11-20T12:24:35;9.00;;;4.43;;
46086;SDS011;31824;49.648;8.640;2022-11-20T12:31:30;11.60;;;5.20;;
46086;SDS011;31824;49.648;8.640;2022-11-20T12:34:56;14.57;;;6.10;;
46086;SDS011;31824;49.648;8.640;2022-11-20T12:38:22;10.68;;;4.68;;
46086;SDS011;31824;49.648;8.640;2022-11-20T12:41:51;14.32;;;5.78;;
46086;SDS011;31824;49.648;8.640;2022-11-20T12:45:46;9.93;;;5.55;;
46086;SDS011;31824;49.648;8.640;2022-11-20T12:49:03;12.20;;;5.55;;
46086;SDS011;31824;49.648;8.640;2022-11-20T12:52:16;8.48;;;4.40;;
46086;SDS011;31824;49.648;8.640;2022-11-20T12:55:36;9.93;;;4.05;;
46086;SDS011;31824;49.648;8.640;2022-11-20T12:58:44;9.30;;;3.08;;
46086;SDS011;31824;49.648;8.640;2022-11-20T13:01:55;6.47;;;3.67;;
46086;SDS011;31824;49.648;8.640;2022-11-20T13:08:33;11.65;;;4.32;;
46086;SDS011;31824;49.648;8.640;2022-11-20T13:11:37;8.20;;;4.40;;
46086;SDS011;31824;49.648;8.640;2022-11-20T13:14:45;8.77;;;4.03;;
46086;SDS011;31824;49.648;8.640;2022-11-20T13:17:52;8.95;;;3.83;;
46086;SDS011;31824;49.648;8.640;2022-11-20T13:20:58;8.50;;;4.40;;
46086;SDS011;31824;49.648;8.640;2022-11-20T13:24:03;13.13;;;5.32;;
46086;SDS011;31824;49.648;8.640;2022-11-20T13:27:17;12.05;;;4.57;;
46086;SDS011;31824;49.648;8.640;2022-11-20T13:30:22;9.63;;;5.43;;
46086;SDS011;31824;49.648;8.640;2022-11-20T13:33:29;6.43;;;2.75;;
46086;SDS011;31824;49.648;8.640;2022-11-20T13:36:33;5.22;;;2.60;;
46086;SDS011;31824;49.648;8.640;2022-11-20T13:39:37;9.73;;;3.10;;
46086;SDS011;31824;49.648;8.640;2022-11-20T13:42:39;8.20;;;2.85;;
46086;SDS011;31824;49.648;8.640;2022-11-20T13:45:54;6.00;;;3.30;;
46086;SDS011;31824;49.648;8.640;2022-11-20T13:48:57;6.35;;;3.38;;
46086;SDS011;31824;49.648;8.640;2022-11-20T13:52:04;8.85;;;2.97;;
46086;SDS011;31824;49.648;8.640;2022-11-20T13:55:29;15.13;;;4.57;;
46086;SDS011;31824;49.648;8.640;2022-11-20T13:58:44;8.18;;;3.80;;
46086;SDS011;31824;49.648;8.640;2022-11-20T14:01:55;5.72;;;2.70;;
46086;SDS011;31824;49.648;8.640;2022-11-20T14:04:57;6.25;;;3.13;;
46086;SDS011;31824;49.648;8.640;2022-11-20T14:08:03;9.82;;;5.00;;
46086;SDS011;31824;49.648;8.640;2022-11-20T14:11:12;14.20;;;4.03;;
46086;SDS011;31824;49.648;8.640;2022-11-20T14:14:17;8.45;;;3.60;;
46086;SDS011;31824;49.648;8.640;2022-11-20T14:17:23;7.30;;;3.67;;
46086;SDS011;31824;49.648;8.640;2022-11-20T14:20:30;6.32;;;3.33;;
46086;SDS011;31824;49.648;8.640;2022-11-20T14:23:35;8.52;;;3.17;;
46086;SDS011;31824;49.648;8.640;2022-11-20T14:26:37;10.73;;;4.20;;
46086;SDS011;31824;49.648;8.640;2022-11-20T14:29:42;5.25;;;2.88;;
46086;SDS011;31824;49.648;8.640;2022-11-20T14:32:46;8.18;;;3.08;;
46086;SDS011;31824;49.648;8.640;2022-11-20T14:35:49;8.65;;;3.72;;
46086;SDS011;31824;49.648;8.640;2022-11-20T14:38:54;6.18;;;2.78;;
46086;SDS011;31824;49.648;8.640;2022-11-20T14:41:56;7.30;;;2.45;;
46086;SDS011;31824;49.648;8.640;2022-11-20T14:44:58;8.55;;;3.53;;
46086;SDS011;31824;49.648;8.640;2022-11-20T14:48:01;6.13;;;2.22;;
46086;SDS011;31824;49.648;8.640;2022-11-20T14:51:02;5.68;;;2.42;;
46086;SDS011;31824;49.648;8.640;2022-11-20T14:54:09;7.03;;;2.17;;
46086;SDS011;31824;49.648;8.640;2022-11-20T14:57:22;9.50;;;2.97;;
46086;SDS011;31824;49.648;8.640;2022-11-20T15:00:26;7.38;;;2.85;;
46086;SDS011;31824;49.648;8.640;2022-11-20T15:03:32;5.75;;;2.47;;
46086;SDS011;31824;49.648;8.640;2022-11-20T15:06:35;7.30;;;3.33;;
46086;SDS011;31824;49.648;8.640;2022-11-20T15:09:38;8.02;;;3.53;;
46086;SDS011;31824;49.648;8.640;2022-11-20T15:12:41;9.60;;;3.47;;
46086;SDS011;31824;49.648;8.640;2022-11-20T15:15:49;9.18;;;3.60;;
46086;SDS011;31824;49.648;8.640;2022-11-20T15:18:52;6.85;;;3.35;;
46086;SDS011;31824;49.648;8.640;2022-11-20T15:21:54;5.40;;;2.50;;
46086;SDS011;31824;49.648;8.640;2022-11-20T15:24:57;7.88;;;2.42;;
46086;SDS011;31824;49.648;8.640;2022-11-20T15:27:58;6.10;;;2.45;;
46086;SDS011;31824;49.648;8.640;2022-11-20T15:31:00;9.13;;;2.35;;
46086;SDS011;31824;49.648;8.640;2022-11-20T15:34:04;3.38;;;1.73;;
46086;SDS011;31824;49.648;8.640;2022-11-20T15:37:08;5.15;;;2.25;;
46086;SDS011;31824;49.648;8.640;2022-11-20T15:40:12;5.18;;;2.45;;
46086;SDS011;31824;49.648;8.640;2022-11-20T15:43:14;5.93;;;1.85;;
46086;SDS011;31824;49.648;8.640;2022-11-20T15:46:16;4.05;;;1.75;;
46086;SDS011;31824;49.648;8.640;2022-11-20T15:49:21;6.25;;;1.88;;
46086;SDS011;31824;49.648;8.640;2022-11-20T15:52:25;2.28;;;1.20;;
46086;SDS011;31824;49.648;8.640;2022-11-20T15:55:32;3.13;;;0.90;;
46086;SDS011;31824;49.648;8.640;2022-11-20T15:58:33;1.77;;;1.23;;
46086;SDS011;31824;49.648;8.640;2022-11-20T16:01:35;1.90;;;0.80;;
46086;SDS011;31824;49.648;8.640;2022-11-20T16:04:37;3.28;;;0.77;;
46086;SDS011;31824;49.648;8.640;2022-11-20T16:07:40;2.00;;;0.80;;
46086;SDS011;31824;49.648;8.640;2022-11-20T16:10:44;1.60;;;0.98;;
46086;SDS011;31824;49.648;8.640;2022-11-20T16:13:46;2.60;;;1.13;;
46086;SDS011;31824;49.648;8.640;2022-11-20T16:17:06;4.38;;;1.60;;
46086;SDS011;31824;49.648;8.640;2022-11-20T16:20:09;5.40;;;2.22;;
46086;SDS011;31824;49.648;8.640;2022-11-20T16:23:12;6.32;;;2.10;;
46086;SDS011;31824;49.648;8.640;2022-11-20T16:26:16;9.90;;;2.65;;
46086;SDS011;31824;49.648;8.640;2022-11-20T16:29:18;3.50;;;1.23;;
46086;SDS011;31824;49.648;8.640;2022-11-20T16:32:20;3.63;;;1.25;;
46086;SDS011;31824;49.648;8.640;2022-11-20T16:35:22;7.78;;;2.42;;
46086;SDS011;31824;49.648;8.640;2022-11-20T16:38:23;5.78;;;2.00;;
46086;SDS011;31824;49.648;8.640;2022-11-20T16:41:27;5.10;;;1.85;;
46086;SDS011;31824;49.648;8.640;2022-11-20T16:44:30;3.83;;;1.45;;
46086;SDS011;31824;49.648;8.640;2022-11-20T16:47:32;3.63;;;1.02;;
46086;SDS011;31824;49.648;8.640;2022-11-20T16:50:34;2.30;;;0.90;;
46086;SDS011;31824;49.648;8.640;2022-11-20T16:53:36;4.05;;;1.05;;
46086;SDS011;31824;49.648;8.640;2022-11-20T16:56:40;1.65;;;0.90;;
46086;SDS011;31824;49.648;8.640;2022-11-20T16:59:42;2.30;;;0.93;;
46086;SDS011;31824;49.648;8.640;2022-11-20T17:02:43;5.82;;;1.30;;
46086;SDS011;31824;49.648;8.640;2022-11-20T17:05:45;2.08;;;1.00;;
46086;SDS011;31824;49.648;8.640;2022-11-20T17:08:47;1.60;;;0.77;;
46086;SDS011;31824;49.648;8.640;2022-11-20T17:11:50;3.45;;;1.45;;
46086;SDS011;31824;49.648;8.640;2022-11-20T17:14:52;2.63;;;0.93;;
46086;SDS011;31824;49.648;8.640;2022-11-20T17:17:54;2.05;;;1.08;;
46086;SDS011;31824;49.648;8.640;2022-11-20T17:20:56;3.03;;;1.27;;
46086;SDS011;31824;49.648;8.640;2022-11-20T17:23:59;4.32;;;1.85;;
46086;SDS011;31824;49.648;8.640;2022-11-20T17:27:03;4.25;;;1.60;;
46086;SDS011;31824;49.648;8.640;2022-11-20T17:30:05;4.15;;;1.42;;
46086;SDS011;31824;49.648;8.640;2022-11-20T17:33:07;2.42;;;1.00;;
46086;SDS011;31824;49.648;8.640;2022-11-20T17:36:13;5.45;;;1.98;;
46086;SDS011;31824;49.648;8.640;2022-11-20T17:39:16;6.15;;;1.42;;
46086;SDS011;31824;49.648;8.640;2022-11-20T17:42:19;3.50;;;1.50;;
46086;SDS011;31824;49.648;8.640;2022-11-20T17:45:27;3.75;;;0.90;;
46086;SDS011;31824;49.648;8.640;2022-11-20T17:48:29;2.67;;;1.13;;
46086;SDS011;31824;49.648;8.640;2022-11-20T17:51:31;2.13;;;0.85;;
46086;SDS011;31824;49.648;8.640;2022-11-20T17:54:35;2.30;;;0.93;;
46086;SDS011;31824;49.648;8.640;2022-11-20T17:57:38;5.95;;;2.63;;
46086;SDS011;31824;49.648;8.640;2022-11-20T18:01:03;4.40;;;1.48;;
46086;SDS011;31824;49.648;8.640;2022-11-20T18:04:05;3.42;;;1.50;;
46086;SDS011;31824;49.648;8.640;2022-11-20T18:07:07;2.38;;;1.25;;
46086;SDS011;31824;49.648;8.640;2022-11-20T18:10:09;3.35;;;1.15;;
46086;SDS011;31824;49.648;8.640;2022-11-20T18:13:12;3.97;;;1.58;;
46086;SDS011;31824;49.648;8.640;2022-11-20T18:16:13;3.65;;;1.38;;
46086;SDS011;31824;49.648;8.640;2022-11-20T18:19:16;3.20;;;1.40;;
46086;SDS011;31824;49.648;8.640;2022-11-20T18:22:19;1.02;;;0.40;;
46086;SDS011;31824;49.648;8.640;2022-11-20T18:25:20;1.75;;;0.80;;
46086;SDS011;31824;49.648;8.640;2022-11-20T18:28:24;4.07;;;0.88;;
46086;SDS011;31824;49.648;8.640;2022-11-20T18:31:25;2.67;;;1.23;;
46086;SDS011;31824;49.648;8.640;2022-11-20T18:34:27;6.07;;;1.40;;
46086;SDS011;31824;49.648;8.640;2022-11-20T18:37:29;3.33;;;1.70;;
46086;SDS011;31824;49.648;8.640;2022-11-20T18:40:33;4.97;;;0.80;;
46086;SDS011;31824;49.648;8.640;2022-11-20T18:43:36;3.10;;;0.90;;
46086;SDS011;31824;49.648;8.640;2022-11-20T18:46:57;1.42;;;0.77;;
46086;SDS011;31824;49.648;8.640;2022-11-20T18:49:59;2.15;;;0.88;;